Time;durP1;ratioP1;P1;durP2;ratioP2;P2;SDS_P1;SDS_P2;PMS_P1;PMS_P2;Temp;Humidity;BMP_temperature;BMP_pressure;BME280_temperature;BME280_humidity;BME280_pressure;Samples;Min_cycle;Max_cycle;Signal;HPM_P1;HPM_P2
2021/04/09 00:00:53;;;;;;;108.15;91.38;;;4.90;99.90;;;;;;5070051;28;20204;-74
2021/04/09 00:03:21;;;;;;;124.22;111.28;;;5.00;99.90;;;;;;5078454;28;20233;-74
2021/04/09 00:05:48;;;;;;;129.13;109.10;;;5.00;99.90;;;;;;5070885;28;20289;-74
2021/04/09 00:08:15;;;;;;;104.63;92.00;;;5.00;99.90;;;;;;5079368;28;20201;-74
2021/04/09 00:10:41;;;;;;;93.57;84.72;;;5.00;99.90;;;;;;5075481;28;20234;-74
2021/04/09 00:13:08;;;;;;;115.50;103.15;;;5.00;99.90;;;;;;5082473;28;20215;-74
2021/04/09 00:15:35;;;;;;;99.60;89.95;;;4.90;99.90;;;;;;5067636;28;20230;-74
2021/04/09 00:18:02;;;;;;;101.10;91.07;;;4.90;99.90;;;;;;5064517;28;20225;-73
2021/04/09 00:20:30;;;;;;;130.77;115.35;;;4.90;99.90;;;;;;5065844;28;20208;-75
2021/04/09 00:22:56;;;;;;;134.18;109.40;;;4.80;99.90;;;;;;5063833;28;20224;-74
2021/04/09 00:25:23;;;;;;;149.30;133.25;;;4.70;99.90;;;;;;5064386;28;20281;-74
2021/04/09 00:27:50;;;;;;;289.92;120.95;;;4.80;99.90;;;;;;5061103;28;20761;-74
2021/04/09 00:30:21;;;;;;;91.68;82.03;;;4.80;99.90;;;;;;5065601;28;20662;-73
2021/04/09 00:32:48;;;;;;;123.82;77.90;;;4.80;99.90;;;;;;5060369;28;20212;-73
2021/04/09 00:35:15;;;;;;;450.80;133.73;;;4.80;99.90;;;;;;5079744;28;20201;-73
2021/04/09 00:37:43;;;;;;;417.35;144.80;;;4.80;99.90;;;;;;5065025;28;20205;-73
2021/04/09 00:40:13;;;;;;;363.73;143.23;;;4.90;99.90;;;;;;5064510;28;20194;-73
2021/04/09 00:42:41;;;;;;;519.63;147.35;;;4.90;99.90;;;;;;5060399;28;20205;-73
2021/04/09 00:45:09;;;;;;;484.70;119.20;;;4.90;99.90;;;;;;5063832;28;20229;-74
2021/04/09 00:47:36;;;;;;;521.85;141.15;;;4.80;99.90;;;;;;5064376;28;20197;-73
2021/04/09 00:50:04;;;;;;;390.83;122.50;;;4.90;99.90;;;;;;5064383;28;20212;-73
2021/04/09 00:52:34;;;;;;;516.60;132.35;;;4.80;99.90;;;;;;5065171;28;20204;-75
2021/04/09 00:55:02;;;;;;;518.85;137.80;;;4.80;99.90;;;;;;5064332;28;20259;-74
2021/04/09 00:57:29;;;;;;;501.38;124.75;;;4.80;99.90;;;;;;5064984;28;20205;-74
2021/04/09 00:59:56;;;;;;;330.92;140.15;;;4.90;99.90;;;;;;5064223;28;20239;-75
2021/04/09 01:02:23;;;;;;;427.45;147.18;;;4.90;99.90;;;;;;5064517;28;20201;-75
2021/04/09 01:04:50;;;;;;;275.98;118.28;;;5.00;99.90;;;;;;5064266;28;20306;-75
2021/04/09 01:07:18;;;;;;;357.90;118.40;;;5.00;99.90;;;;;;5064775;28;20205;-74
2021/04/09 01:09:44;;;;;;;512.33;138.05;;;5.00;99.90;;;;;;5063814;28;20209;-74
2021/04/09 01:12:12;;;;;;;287.50;139.05;;;5.00;99.90;;;;;;5064756;28;20227;-74
2021/04/09 01:14:39;;;;;;;512.40;140.20;;;5.00;99.90;;;;;;5063988;28;20209;-74
2021/04/09 01:17:12;;;;;;;515.38;144.50;;;5.00;99.90;;;;;;5062590;28;20720;-74
2021/04/09 01:20:15;;;;;;;500.40;128.70;;;5.00;99.90;;;;;;5059709;28;20209;-74
2021/04/09 01:22:46;;;;;;;505.95;135.07;;;5.00;99.90;;;;;;5062775;28;20208;-74
2021/04/09 01:25:46;;;;;;;496.67;122.38;;;4.90;99.90;;;;;;5064049;28;20225;-74
2021/04/09 01:28:17;;;;;;;507.38;140.02;;;4.80;99.90;;;;;;5063062;28;20202;-74
2021/04/09 01:31:07;;;;;;;507.65;137.05;;;4.80;99.90;;;;;;5059233;28;20212;-74
2021/04/09 01:33:39;;;;;;;501.70;128.20;;;4.70;99.90;;;;;;5062679;28;20212;-73
2021/04/09 01:36:12;;;;;;;493.27;121.05;;;4.70;99.90;;;;;;5063694;28;20209;-73
2021/04/09 01:38:44;;;;;;;504.10;134.05;;;4.70;99.90;;;;;;5063826;28;20666;-73
2021/04/09 01:41:12;;;;;;;506.50;133.02;;;4.70;99.90;;;;;;5063596;28;20197;-73
2021/04/09 01:43:42;;;;;;;513.25;139.70;;;4.70;99.90;;;;;;5064665;28;20220;-74
2021/04/09 01:46:10;;;;;;;514.25;143.05;;;4.70;99.90;;;;;;5064113;28;20224;-74
2021/04/09 01:48:41;;;;;;;497.17;129.15;;;4.70;99.90;;;;;;5062843;28;20237;-74
2021/04/09 01:51:09;;;;;;;511.45;142.50;;;4.70;99.90;;;;;;5056719;28;20205;-74
2021/04/09 01:53:38;;;;;;;511.20;136.40;;;4.70;99.90;;;;;;5063935;28;20255;-74
2021/04/09 01:56:07;;;;;;;512.65;139.00;;;4.70;99.90;;;;;;5061679;28;20205;-75
2021/04/09 01:58:36;;;;;;;395.40;141.15;;;4.60;99.90;;;;;;5064375;28;20726;-75
2021/04/09 02:01:03;;;;;;;56.17;50.28;;;4.70;99.90;;;;;;5087533;28;20202;-75
2021/04/09 02:03:30;;;;;;;97.63;79.57;;;4.70;99.90;;;;;;5063557;28;20228;-75
2021/04/09 02:05:58;;;;;;;223.43;128.38;;;4.60;99.90;;;;;;5063136;28;20239;-74
2021/04/09 02:08:25;;;;;;;186.95;140.05;;;4.70;99.90;;;;;;5063592;28;20201;-74
2021/04/09 02:10:55;;;;;;;149.90;131.52;;;4.70;99.90;;;;;;5078568;28;20244;-74
2021/04/09 02:13:23;;;;;;;77.95;69.32;;;4.70;99.90;;;;;;5063907;28;20623;-75
2021/04/09 02:15:54;;;;;;;474.30;130.30;;;4.70;99.90;;;;;;5062487;28;20216;-74
2021/04/09 02:18:21;;;;;;;94.00;75.60;;;4.70;99.90;;;;;;5063217;28;20236;-73
2021/04/09 02:20:48;;;;;;;116.13;102.90;;;4.70;99.90;;;;;;5063611;28;20204;-73
2021/04/09 02:23:16;;;;;;;255.60;139.55;;;4.70;99.90;;;;;;5063340;28;20247;-73
2021/04/09 02:25:43;;;;;;;44.03;40.30;;;4.80;99.90;;;;;;5062873;28;20239;-73
2021/04/09 02:28:10;;;;;;;17.42;13.48;;;4.70;99.90;;;;;;5063532;28;20240;-73
2021/04/09 02:30:36;;;;;;;20.60;18.48;;;4.70;99.90;;;;;;5063226;28;20219;-73
2021/04/09 02:33:03;;;;;;;18.90;17.05;;;4.70;99.90;;;;;;5063261;28;20205;-73
2021/04/09 02:35:30;;;;;;;41.22;32.70;;;4.70;99.90;;;;;;5062671;28;20205;-73
2021/04/09 02:37:56;;;;;;;12.70;10.48;;;4.60;99.90;;;;;;5063003;28;20197;-73
2021/04/09 02:40:27;;;;;;;87.43;57.58;;;4.60;99.90;;;;;;5062630;28;20205;-73
2021/04/09 02:42:55;;;;;;;79.80;73.18;;;4.60;99.90;;;;;;5062990;28;20206;-73
2021/04/09 02:45:24;;;;;;;42.72;22.58;;;4.60;99.90;;;;;;5062984;28;20225;-74
2021/04/09 02:47:53;;;;;;;121.70;94.22;;;4.60;99.90;;;;;;5066344;28;20201;-74
2021/04/09 02:50:31;;;;;;;133.15;106.50;;;4.60;99.90;;;;;;5067061;28;20211;-74
2021/04/09 02:53:03;;;;;;;85.40;76.60;;;4.60;99.90;;;;;;5066717;28;20622;-74
2021/04/09 02:55:36;;;;;;;74.55;67.85;;;4.70;99.90;;;;;;5066946;28;20213;-74
2021/04/09 02:58:06;;;;;;;56.75;41.13;;;4.70;99.90;;;;;;5067207;28;20225;-74
2021/04/09 03:00:34;;;;;;;31.65;28.85;;;4.80;99.90;;;;;;5066021;28;20223;-74
2021/04/09 03:03:02;;;;;;;36.63;23.20;;;4.80;99.90;;;;;;5066674;28;20259;-74
2021/04/09 03:05:29;;;;;;;86.35;77.68;;;4.90;99.90;;;;;;5066537;28;20225;-74
2021/04/09 03:08:00;;;;;;;98.45;89.03;;;4.90;99.90;;;;;;5066735;28;20212;-74
2021/04/09 03:10:27;;;;;;;92.70;83.82;;;4.80;99.90;;;;;;5066640;28;20224;-74
2021/04/09 03:12:54;;;;;;;175.45;149.55;;;4.90;99.90;;;;;;5065367;28;20208;-74
2021/04/09 03:15:24;;;;;;;120.13;106.63;;;4.90;99.90;;;;;;5065676;28;20197;-74
2021/04/09 03:17:56;;;;;;;77.30;70.85;;;4.90;99.90;;;;;;5066815;28;20220;-74
2021/04/09 03:20:23;;;;;;;80.32;72.43;;;4.90;99.90;;;;;;5066704;28;20201;-74
2021/04/09 03:22:50;;;;;;;88.65;80.43;;;5.00;99.90;;;;;;5066058;28;20208;-74
2021/04/09 03:25:16;;;;;;;77.97;71.18;;;4.90;99.90;;;;;;5065732;28;20232;-74
2021/04/09 03:27:43;;;;;;;81.63;72.85;;;4.90;99.90;;;;;;5066197;28;20209;-74
2021/04/09 03:30:12;;;;;;;67.05;61.72;;;4.90;99.90;;;;;;5066027;28;20204;-73
2021/04/09 03:32:38;;;;;;;64.85;59.13;;;5.00;99.90;;;;;;5061236;28;20236;-73
2021/04/09 03:35:06;;;;;;;66.82;61.90;;;5.00;99.90;;;;;;5065575;28;20209;-73
2021/04/09 03:37:33;;;;;;;97.88;87.93;;;5.00;99.90;;;;;;5065970;28;20209;-73
2021/04/09 03:40:00;;;;;;;67.00;61.85;;;4.90;99.90;;;;;;5066228;28;20208;-74
2021/04/09 03:42:26;;;;;;;93.55;80.15;;;4.90;99.90;;;;;;5065841;28;20201;-73
2021/04/09 03:44:53;;;;;;;44.80;35.58;;;4.90;99.90;;;;;;5065906;28;20568;-73
2021/04/09 03:47:21;;;;;;;89.20;74.13;;;4.80;99.90;;;;;;5066095;28;20201;-73
2021/04/09 03:49:48;;;;;;;61.28;55.80;;;4.80;99.90;;;;;;5065932;28;20201;-73
2021/04/09 03:52:14;;;;;;;54.20;49.55;;;4.80;99.90;;;;;;5065831;28;20201;-74
2021/04/09 03:54:41;;;;;;;61.28;55.38;;;4.80;99.90;;;;;;5065884;28;20300;-74
2021/04/09 03:57:07;;;;;;;60.08;55.63;;;4.80;99.90;;;;;;5065161;28;20204;-75
2021/04/09 03:59:34;;;;;;;28.35;26.00;;;4.80;99.90;;;;;;5062055;28;20201;-74
2021/04/09 04:02:01;;;;;;;70.90;64.68;;;4.80;99.90;;;;;;5065352;28;20208;-74
2021/04/09 04:04:28;;;;;;;286.70;141.63;;;4.80;99.90;;;;;;5064478;28;20237;-74
2021/04/09 04:06:55;;;;;;;267.40;124.68;;;4.80;99.90;;;;;;5065044;28;20224;-74
2021/04/09 04:09:21;;;;;;;256.92;91.95;;;4.70;99.90;;;;;;5065145;28;20201;-75
2021/04/09 04:11:48;;;;;;;501.90;142.55;;;4.70;99.90;;;;;;5065459;28;20231;-75
2021/04/09 04:14:14;;;;;;;113.40;56.00;;;4.70;99.90;;;;;;5065102;28;20197;-75
2021/04/09 04:16:41;;;;;;;142.38;127.57;;;4.80;99.90;;;;;;5063354;28;20228;-75
2021/04/09 04:19:07;;;;;;;172.90;134.98;;;4.80;99.90;;;;;;5063715;28;20270;-74
2021/04/09 04:21:35;;;;;;;100.25;91.10;;;4.80;99.90;;;;;;5063881;28;20658;-74
2021/04/09 04:24:01;;;;;;;92.20;84.57;;;4.90;99.90;;;;;;5062515;28;20208;-75
2021/04/09 04:26:28;;;;;;;159.63;137.50;;;4.90;99.90;;;;;;5063783;28;20202;-74
2021/04/09 04:28:54;;;;;;;502.02;143.27;;;4.90;99.90;;;;;;5059890;28;20206;-75
2021/04/09 04:31:21;;;;;;;38.78;35.42;;;4.80;99.90;;;;;;5063126;28;20206;-73
2021/04/09 04:33:47;;;;;;;59.97;55.58;;;4.80;99.90;;;;;;5064567;28;20208;-73
2021/04/09 04:36:14;;;;;;;252.88;94.97;;;4.80;99.90;;;;;;5063954;28;20201;-73
2021/04/09 04:38:41;;;;;;;40.28;37.08;;;4.90;99.90;;;;;;5063444;28;20843;-76
2021/04/09 04:41:08;;;;;;;59.40;54.58;;;4.90;99.90;;;;;;5063457;28;20208;-76
2021/04/09 04:43:34;;;;;;;37.53;34.40;;;4.80;99.90;;;;;;5063681;28;20201;-76
2021/04/09 04:46:01;;;;;;;19.20;17.17;;;4.80;99.90;;;;;;5063723;28;20225;-76
2021/04/09 04:48:27;;;;;;;46.15;42.55;;;4.90;99.90;;;;;;5063857;28;20197;-76
2021/04/09 04:50:54;;;;;;;23.70;21.73;;;4.80;99.90;;;;;;5063597;28;20231;-76
2021/04/09 04:53:21;;;;;;;34.78;31.92;;;4.90;99.90;;;;;;5064587;28;20231;-76
2021/04/09 04:55:48;;;;;;;83.07;75.93;;;5.00;99.90;;;;;;5063183;28;20201;-77
2021/04/09 05:00:56;;;;;;;110.05;100.95;;;5.00;99.90;;;;;;5063417;28;20473;-76
2021/04/09 05:03:22;;;;;;;29.10;26.30;;;5.00;99.90;;;;;;5063082;28;20237;-76
2021/04/09 05:08:30;;;;;;;51.03;46.97;;;5.10;99.90;;;;;;5061992;28;20734;-76
2021/04/09 05:10:58;;;;;;;43.63;39.67;;;5.10;99.90;;;;;;5063723;28;20558;-76
2021/04/09 05:13:25;;;;;;;49.00;45.08;;;5.10;99.90;;;;;;5063113;28;20197;-76
2021/04/09 05:15:51;;;;;;;68.00;61.97;;;5.10;99.90;;;;;;5063605;28;20201;-76
2021/04/09 05:18:18;;;;;;;50.10;46.35;;;5.10;99.90;;;;;;5063273;28;20197;-76
2021/04/09 05:20:44;;;;;;;89.95;81.53;;;5.20;99.90;;;;;;5055959;28;20213;-76
2021/04/09 05:23:11;;;;;;;83.35;76.38;;;5.20;99.90;;;;;;5063458;28;20193;-76
2021/04/09 05:25:38;;;;;;;79.50;72.78;;;5.20;99.90;;;;;;5062365;28;20717;-76
2021/04/09 05:28:07;;;;;;;79.30;72.38;;;5.30;99.90;;;;;;5062832;28;20764;-76
2021/04/09 05:30:41;;;;;;;76.15;69.57;;;5.30;99.90;;;;;;5063772;28;20201;-76
2021/04/09 05:33:08;;;;;;;74.93;68.43;;;5.40;99.90;;;;;;5062423;28;20196;-76
2021/04/09 05:35:38;;;;;;;57.42;51.75;;;5.40;99.90;;;;;;5062383;28;20567;-76
2021/04/09 05:38:04;;;;;;;75.10;68.80;;;5.40;99.90;;;;;;5061872;28;20201;-76
2021/04/09 05:40:31;;;;;;;76.97;70.10;;;5.50;99.90;;;;;;5057101;28;20208;-76
2021/04/09 05:42:58;;;;;;;126.97;113.38;;;5.60;99.90;;;;;;5059580;28;20248;-76
2021/04/09 05:45:26;;;;;;;74.65;68.30;;;5.60;99.90;;;;;;5057397;28;20654;-76
2021/04/09 05:50:36;;;;;;;56.13;51.47;;;5.80;99.90;;;;;;5062835;28;20232;-77
2021/04/09 05:53:03;;;;;;;64.32;58.88;;;5.90;99.90;;;;;;5062887;28;20205;-76
2021/04/09 05:55:30;;;;;;;65.03;59.83;;;5.90;99.90;;;;;;5061577;28;20201;-76
2021/04/09 05:57:56;;;;;;;57.38;53.08;;;5.90;99.90;;;;;;5062585;28;20631;-75
2021/04/09 06:00:23;;;;;;;63.85;58.78;;;6.00;99.90;;;;;;5062638;28;20197;-76
2021/04/09 06:05:38;;;;;;;304.83;139.40;;;6.20;99.90;;;;;;5061873;28;20232;-76
2021/04/09 06:08:08;;;;;;;54.40;48.70;;;6.30;99.90;;;;;;5062291;28;20204;-76
2021/04/09 06:10:35;;;;;;;95.72;86.13;;;6.30;99.90;;;;;;5059604;28;20205;-76
2021/04/09 06:13:02;;;;;;;49.17;39.50;;;6.40;99.90;;;;;;5062838;28;20212;-76
2021/04/09 06:15:28;;;;;;;39.78;36.65;;;6.50;99.90;;;;;;5062838;28;20197;-76
2021/04/09 06:17:56;;;;;;;230.35;161.38;;;6.60;99.90;;;;;;5063157;28;20271;-76
2021/04/09 06:20:23;;;;;;;246.82;184.18;;;6.70;99.90;;;;;;5064212;28;20208;-76
2021/04/09 06:22:50;;;;;;;223.98;188.30;;;6.90;99.90;;;;;;5066622;28;20266;-77
2021/04/09 06:27:59;;;;;;;235.50;175.38;;;7.00;99.90;;;;;;5066436;28;20208;-76
2021/04/09 06:30:26;;;;;;;255.82;206.30;;;7.10;99.90;;;;;;5066908;28;20211;-76
2021/04/09 06:32:52;;;;;;;228.27;178.73;;;7.30;99.90;;;;;;5066580;28;20208;-76
2021/04/09 06:35:20;;;;;;;254.00;226.68;;;7.40;99.90;;;;;;5070226;28;20201;-76
2021/04/09 06:37:46;;;;;;;251.98;225.65;;;7.50;99.90;;;;;;5064411;28;20197;-76
2021/04/09 06:40:15;;;;;;;37.10;33.10;;;7.60;99.90;;;;;;5064375;28;20366;-76
2021/04/09 06:42:41;;;;;;;168.23;143.95;;;7.70;99.90;;;;;;5065902;28;20276;-76
2021/04/09 06:45:17;;;;;;;24.63;18.45;;;7.80;99.90;;;;;;5066739;28;20217;-76
2021/04/09 06:47:44;;;;;;;262.00;236.68;;;7.90;99.90;;;;;;5065916;28;20211;-76
2021/04/09 06:50:11;;;;;;;279.23;250.15;;;8.00;99.90;;;;;;5066246;28;20213;-76
2021/04/09 06:52:39;;;;;;;48.90;28.55;;;8.10;99.90;;;;;;5066365;28;20220;-76
2021/04/09 06:55:07;;;;;;;239.75;215.60;;;8.20;99.90;;;;;;5066238;28;20756;-76
2021/04/09 06:57:35;;;;;;;245.05;219.18;;;8.30;99.90;;;;;;5065570;28;20205;-76
2021/04/09 07:00:08;;;;;;;342.92;231.75;;;8.30;99.90;;;;;;5066591;28;20208;-76
2021/04/09 07:02:35;;;;;;;31.42;26.70;;;8.50;99.90;;;;;;5061246;28;20193;-76
2021/04/09 07:05:03;;;;;;;22.40;8.55;;;8.50;99.90;;;;;;5061178;28;20967;-76
2021/04/09 07:07:29;;;;;;;330.33;302.70;;;8.40;99.90;;;;;;5063381;28;20205;-76
2021/04/09 07:09:57;;;;;;;163.80;146.95;;;8.50;99.90;;;;;;5065266;28;20205;-76
2021/04/09 07:12:28;;;;;;;48.65;43.63;;;8.80;99.90;;;;;;5064553;28;20213;-76
2021/04/09 07:14:56;;;;;;;17.05;10.77;;;9.00;99.90;;;;;;5061624;28;20240;-76
2021/04/09 07:17:27;;;;;;;269.98;245.55;;;9.10;99.90;;;;;;5066131;28;20362;-76
2021/04/09 07:20:17;;;;;;;311.75;285.50;;;9.30;99.90;;;;;;5066008;28;20247;-76
2021/04/09 07:22:46;;;;;;;22.67;19.80;;;9.40;99.90;;;;;;5064903;28;20644;-76
2021/04/09 07:25:15;;;;;;;14.88;8.40;;;9.50;99.90;;;;;;5066014;28;20253;-76
2021/04/09 07:27:44;;;;;;;16.27;8.25;;;9.80;99.90;;;;;;5064923;28;20209;-76
2021/04/09 07:30:15;;;;;;;15.52;8.90;;;10.20;99.90;;;;;;5062721;28;20209;-76
2021/04/09 07:32:43;;;;;;;10.07;8.23;;;10.40;99.90;;;;;;5061404;28;20209;-76
2021/04/09 07:35:13;;;;;;;13.63;10.30;;;10.70;99.90;;;;;;5059564;28;20220;-76
2021/04/09 07:37:49;;;;;;;31.63;29.02;;;11.00;99.90;;;;;;5066523;28;20201;-76
2021/04/09 07:40:21;;;;;;;42.53;39.30;;;11.30;99.90;;;;;;5064881;28;20201;-76
2021/04/09 07:42:49;;;;;;;130.77;79.20;;;11.70;99.90;;;;;;5065435;28;20204;-76
2021/04/09 07:45:19;;;;;;;563.30;385.40;;;12.00;99.90;;;;;;5065094;28;20312;-76
2021/04/09 07:47:56;;;;;;;378.10;343.45;;;12.30;99.90;;;;;;5065518;28;20498;-76
2021/04/09 07:50:36;;;;;;;484.30;416.60;;;12.50;99.90;;;;;;5060580;28;20223;-76
2021/04/09 07:53:11;;;;;;;26.60;19.88;;;12.70;99.90;;;;;;5061275;28;20634;-76
2021/04/09 07:55:39;;;;;;;10.13;7.70;;;12.60;99.90;;;;;;5065001;28;20213;-76
2021/04/09 07:58:24;;;;;;;10.25;7.03;;;12.40;99.90;;;;;;5065405;28;20217;-77
2021/04/09 08:00:53;;;;;;;13.80;7.88;;;12.40;99.90;;;;;;5065508;28;20257;-76
2021/04/09 08:03:33;;;;;;;15.70;8.77;;;12.30;99.90;;;;;;5065909;28;20263;-76
2021/04/09 08:06:08;;;;;;;40.58;33.10;;;12.10;99.90;;;;;;5064234;28;20299;-76
2021/04/09 08:08:34;;;;;;;10.25;6.65;;;11.80;99.90;;;;;;5064479;28;20200;-76
2021/04/09 08:11:21;;;;;;;12.68;7.68;;;11.70;99.90;;;;;;5064708;28;20205;-76
2021/04/09 08:14:02;;;;;;;11.55;7.22;;;11.60;99.90;;;;;;5065629;28;20283;-76
2021/04/09 08:16:40;;;;;;;12.70;6.70;;;11.70;99.90;;;;;;5061454;28;20554;-76
2021/04/09 08:19:09;;;;;;;15.63;8.70;;;12.00;99.90;;;;;;5061299;28;20202;-76
2021/04/09 08:21:47;;;;;;;11.88;7.13;;;12.30;99.90;;;;;;5063423;28;20201;-76
2021/04/09 08:24:14;;;;;;;12.18;7.88;;;12.50;99.90;;;;;;5062131;28;20205;-76
2021/04/09 08:26:41;;;;;;;12.27;7.15;;;13.00;99.90;;;;;;5063632;28;20226;-76
2021/04/09 08:29:09;;;;;;;11.85;7.50;;;13.70;99.90;;;;;;5064391;28;20201;-76
2021/04/09 08:31:37;;;;;;;11.55;7.22;;;14.30;99.30;;;;;;5064785;28;20218;-76
2021/04/09 08:34:04;;;;;;;11.80;7.30;;;14.50;97.20;;;;;;5063484;28;20216;-77
2021/04/09 08:36:31;;;;;;;14.93;7.80;;;14.40;97.60;;;;;;5064162;28;20198;-76
2021/04/09 08:38:58;;;;;;;12.68;7.57;;;14.30;97.20;;;;;;5063859;28;20266;-77
2021/04/09 08:44:10;;;;;;;10.95;7.22;;;13.80;97.60;;;;;;5059725;28;20207;-76
2021/04/09 08:46:37;;;;;;;13.90;7.72;;;13.60;97.50;;;;;;5063638;28;20218;-76
2021/04/09 08:49:04;;;;;;;10.80;6.95;;;13.50;98.40;;;;;;5063415;28;20676;-76
2021/04/09 08:51:32;;;;;;;12.45;7.22;;;13.60;98.70;;;;;;5064340;28;20197;-76
2021/04/09 08:56:59;;;;;;;14.68;7.20;;;14.30;97.30;;;;;;5060160;28;20656;-76
2021/04/09 08:59:42;;;;;;;15.15;7.43;;;14.50;98.50;;;;;;5063950;28;20206;-76
2021/04/09 09:02:21;;;;;;;13.23;7.57;;;15.20;98.10;;;;;;5062167;28;20809;-76
2021/04/09 09:05:01;;;;;;;10.10;7.03;;;15.60;97.20;;;;;;5063514;28;20249;-76
2021/04/09 09:07:52;;;;;;;11.00;7.82;;;16.20;96.40;;;;;;5058294;28;20209;-76
2021/04/09 09:10:44;;;;;;;9.93;7.00;;;16.80;94.70;;;;;;5049852;28;20252;-76
2021/04/09 09:13:28;;;;;;;16.13;7.68;;;17.10;93.30;;;;;;5054716;28;20209;-76
2021/04/09 09:16:18;;;;;;;10.73;7.75;;;16.90;93.60;;;;;;5059637;28;20272;-76
2021/04/09 09:19:02;;;;;;;9.60;8.18;;;17.00;93.10;;;;;;5061217;28;20206;-76
2021/04/09 09:24:23;;;;;;;12.48;7.00;;;17.00;93.00;;;;;;5061479;28;20214;-78
2021/04/09 09:32:31;;;;;;;8.93;6.47;;;17.00;92.30;;;;;;5062715;28;20281;-77
2021/04/09 09:34:57;;;;;;;11.90;7.35;;;17.30;91.90;;;;;;5063346;28;20215;-77
2021/04/09 09:37:40;;;;;;;13.77;8.75;;;17.00;91.10;;;;;;5063638;28;20197;-77
2021/04/09 09:40:08;;;;;;;9.32;7.60;;;16.90;91.20;;;;;;5060530;28;20227;-77
2021/04/09 09:42:42;;;;;;;12.75;8.15;;;17.00;90.90;;;;;;5062033;28;20202;-79
2021/04/09 09:45:11;;;;;;;13.30;7.50;;;16.90;91.40;;;;;;5062068;28;20234;-77
2021/04/09 09:48:13;;;;;;;10.23;7.57;;;16.70;91.40;;;;;;5062751;28;20208;-77
2021/04/09 09:50:41;;;;;;;13.35;8.95;;;16.50;91.10;;;;;;5062161;28;20233;-77
2021/04/09 09:53:11;;;;;;;12.25;8.23;;;16.20;90.90;;;;;;5055925;28;20209;-78
2021/04/09 09:58:23;;;;;;;9.00;7.80;;;16.10;91.30;;;;;;5056336;28;20253;-77
2021/04/09 10:05:11;;;;;;;17.73;9.80;;;16.10;91.10;;;;;;5111305;27;20542;-77
2021/04/09 10:07:39;;;;;;;12.57;11.05;;;15.80;91.10;;;;;;5110242;28;20200;-77
2021/04/09 10:20:55;;;;;;;24.67;22.15;;;14.60;92.40;;;;;;5111322;28;20254;-78
2021/04/09 10:34:08;;;;;;;22.05;20.10;;;15.20;92.40;;;;;;5115721;28;20233;-78
2021/04/09 10:36:36;;;;;;;17.65;14.75;;;15.30;92.00;;;;;;5113162;28;20212;-78
2021/04/09 10:39:12;;;;;;;19.67;18.30;;;15.20;91.70;;;;;;5108081;28;20218;-76
2021/04/09 10:41:40;;;;;;;21.42;19.58;;;15.00;92.30;;;;;;5107402;28;20202;-77
2021/04/09 10:44:13;;;;;;;20.75;19.20;;;15.10;91.90;;;;;;5106433;28;20234;-77
2021/04/09 10:52:15;;;;;;;26.33;23.95;;;14.90;92.30;;;;;;5110499;28;20252;-77
2021/04/09 11:00:08;;;;;;;26.88;24.77;;;15.60;92.10;;;;;;5111898;28;20624;-78
2021/04/09 11:05:22;;;;;;;23.55;21.60;;;15.50;92.20;;;;;;5109340;28;20205;-79
2021/04/09 11:13:12;;;;;;;21.02;19.02;;;15.30;92.40;;;;;;5110581;28;20193;-78
2021/04/09 11:15:40;;;;;;;41.65;39.08;;;15.20;92.30;;;;;;5097229;28;20206;-78
2021/04/09 11:20:50;;;;;;;30.23;28.25;;;15.30;92.60;;;;;;5093767;28;20233;-77
2021/04/09 11:31:32;;;;;;;50.63;47.88;;;14.80;92.50;;;;;;5088087;28;20205;-77
2021/04/09 11:34:07;;;;;;;39.55;36.92;;;14.80;93.00;;;;;;5086640;28;20717;-77
2021/04/09 11:36:43;;;;;;;39.05;36.58;;;14.80;93.00;;;;;;5095096;28;20205;-76
2021/04/09 11:39:25;;;;;;;41.00;38.53;;;15.20;93.40;;;;;;5093978;28;20675;-77
2021/04/09 11:41:56;;;;;;;57.92;54.70;;;15.20;92.30;;;;;;5095583;28;20212;-77
2021/04/09 11:47:20;;;;;;;41.83;39.30;;;15.30;92.10;;;;;;5092978;28;20307;-77
2021/04/09 11:52:29;;;;;;;59.50;56.10;;;15.10;92.00;;;;;;5089004;28;20207;-77
2021/04/09 11:54:57;;;;;;;36.67;34.33;;;14.80;92.10;;;;;;5090953;28;20207;-77
2021/04/09 11:57:25;;;;;;;35.83;33.72;;;14.60;92.60;;;;;;5090413;28;20199;-77
2021/04/09 11:59:52;;;;;;;26.27;24.38;;;14.40;92.80;;;;;;5086951;28;20203;-77
2021/04/09 12:02:22;;;;;;;36.38;34.08;;;14.50;92.70;;;;;;5087902;28;20200;-77
2021/04/09 12:04:51;;;;;;;50.58;47.67;;;14.60;92.90;;;;;;5087262;28;20237;-77
2021/04/09 12:07:20;;;;;;;316.85;297.70;;;14.90;93.20;;;;;;5088713;28;20208;-77
2021/04/09 12:09:50;;;;;;;268.08;252.27;;;15.00;92.70;;;;;;5088312;28;20212;-78
2021/04/09 12:12:32;;;;;;;410.55;375.85;;;15.10;91.90;;;;;;5090808;28;20185;-78
2021/04/09 12:15:08;;;;;;;430.48;398.52;;;15.10;92.40;;;;;;5095981;28;20297;-79
2021/04/09 12:22:58;;;;;;;158.55;149.93;;;14.80;92.30;;;;;;5089678;28;20231;-77
2021/04/09 12:25:24;;;;;;;105.13;99.38;;;14.70;92.30;;;;;;5095115;28;20220;-76
2021/04/09 12:27:52;;;;;;;104.38;98.85;;;14.60;92.50;;;;;;5085006;28;20261;-76
2021/04/09 12:30:20;;;;;;;201.93;190.98;;;14.60;93.10;;;;;;5086947;28;20196;-76
2021/04/09 12:32:46;;;;;;;152.40;144.02;;;14.60;93.00;;;;;;5086439;28;20291;-77
2021/04/09 12:35:13;;;;;;;161.40;152.65;;;14.60;92.90;;;;;;5091083;28;20203;-77
2021/04/09 12:37:40;;;;;;;160.63;151.75;;;14.80;93.00;;;;;;5085798;28;20202;-77
2021/04/09 12:40:08;;;;;;;203.32;192.10;;;14.90;92.90;;;;;;5090437;28;20277;-76
2021/04/09 12:42:34;;;;;;;141.07;133.32;;;15.00;93.00;;;;;;5085600;28;20287;-77
2021/04/09 12:45:17;;;;;;;181.18;171.30;;;15.10;93.30;;;;;;5090446;28;20672;-77
2021/04/09 12:50:25;;;;;;;194.15;183.93;;;15.40;92.90;;;;;;5085364;28;20263;-77
2021/04/09 12:52:51;;;;;;;619.15;559.85;;;15.60;92.80;;;;;;5085817;28;20214;-77
2021/04/09 12:55:18;;;;;;;380.75;353.48;;;15.60;93.00;;;;;;5085448;28;20642;-77
2021/04/09 13:05:51;;;;;;;9.55;6.25;;;15.80;93.10;;;;;;5094762;28;20267;-77
2021/04/09 13:08:19;;;;;;;7.93;6.85;;;16.00;91.60;;;;;;5086307;28;20202;-75
2021/04/09 13:10:45;;;;;;;11.10;6.93;;;16.00;92.00;;;;;;5085074;28;20207;-75
2021/04/09 13:16:08;;;;;;;11.80;7.57;;;15.90;92.20;;;;;;5094736;28;20196;-75
2021/04/09 13:18:40;;;;;;;10.73;9.65;;;15.70;90.50;;;;;;5093059;28;20210;-76
2021/04/09 13:21:07;;;;;;;18.15;17.10;;;15.50;90.30;;;;;;5089826;28;20254;-75
2021/04/09 13:23:33;;;;;;;9.52;8.63;;;15.20;90.00;;;;;;5089394;28;20227;-75
2021/04/09 13:26:00;;;;;;;12.90;9.85;;;14.90;89.70;;;;;;5084750;28;20380;-75
2021/04/09 13:28:28;;;;;;;11.23;10.35;;;14.90;90.20;;;;;;5090700;28;20207;-75
2021/04/09 13:30:59;;;;;;;8.27;7.65;;;15.00;90.20;;;;;;5084787;28;20214;-76
2021/04/09 13:33:28;;;;;;;17.88;16.50;;;14.90;90.10;;;;;;5090475;28;20218;-75
2021/04/09 13:35:56;;;;;;;16.05;14.60;;;14.90;89.20;;;;;;5091970;28;20200;-76
2021/04/09 13:38:22;;;;;;;12.63;11.70;;;14.90;88.90;;;;;;5092910;28;20214;-76
2021/04/09 13:40:50;;;;;;;10.68;9.82;;;14.90;89.90;;;;;;5088986;28;20229;-75
2021/04/09 13:43:17;;;;;;;9.52;8.65;;;15.00;90.00;;;;;;5085215;28;20223;-76
2021/04/09 13:45:44;;;;;;;19.45;18.33;;;15.20;90.40;;;;;;5090230;28;20206;-75
2021/04/09 13:48:11;;;;;;;14.68;13.45;;;15.30;89.70;;;;;;5090799;28;20203;-76
2021/04/09 13:50:39;;;;;;;11.40;10.27;;;15.20;88.80;;;;;;5087454;28;20208;-76
2021/04/09 13:53:06;;;;;;;13.25;10.82;;;15.30;89.20;;;;;;5089915;28;20216;-75
2021/04/09 13:55:33;;;;;;;13.85;12.93;;;15.20;87.50;;;;;;5084356;28;20207;-75
2021/04/09 13:57:59;;;;;;;12.30;11.38;;;15.20;88.90;;;;;;5088254;28;20599;-76
2021/04/09 14:00:26;;;;;;;13.95;12.00;;;15.40;90.80;;;;;;5094934;28;20199;-76
2021/04/09 14:02:53;;;;;;;13.55;12.32;;;15.70;91.50;;;;;;5092233;28;20228;-77
2021/04/09 14:05:19;;;;;;;16.23;15.10;;;15.70;92.80;;;;;;5091464;28;20268;-78
2021/04/09 14:07:48;;;;;;;12.50;11.07;;;15.80;91.90;;;;;;5086005;28;20206;-77
2021/04/09 14:10:16;;;;;;;13.88;12.68;;;15.80;91.60;;;;;;5090118;28;20214;-77
2021/04/09 14:18:12;;;;;;;21.75;20.13;;;15.70;91.10;;;;;;5089338;28;20328;-77
2021/04/09 14:20:38;;;;;;;10.98;9.93;;;15.60;91.00;;;;;;5090389;28;20582;-77
2021/04/09 14:23:06;;;;;;;11.20;9.88;;;15.60;91.00;;;;;;5085103;28;20231;-75
2021/04/09 14:30:57;;;;;;;8.60;6.85;;;15.60;90.80;;;;;;5090926;28;20336;-76
2021/04/09 14:33:24;;;;;;;24.75;22.75;;;15.60;91.20;;;;;;5084888;28;20204;-76
2021/04/09 14:35:51;;;;;;;24.10;22.60;;;15.60;91.10;;;;;;5085275;28;20206;-76
2021/04/09 14:38:19;;;;;;;381.35;357.05;;;15.50;91.00;;;;;;5085683;28;20203;-75
2021/04/09 14:40:46;;;;;;;199.13;187.88;;;15.50;91.00;;;;;;5085700;28;20327;-75